sensor_id;sensor_type;location;lat;lon;timestamp;pressure;altitude;pressure_sealevel;temperature;humidity
48390;BME280;34643;47.964;7.982;2023-10-09T00:02:58;97442.91;;;19.48;54.13
48390;BME280;34643;47.964;7.982;2023-10-09T00:08:00;97438.50;;;19.49;54.15
48390;BME280;34643;47.964;7.982;2023-10-09T00:13:03;97440.31;;;19.48;54.09
48390;BME280;34643;47.964;7.982;2023-10-09T00:18:04;97441.97;;;19.49;54.23
48390;BME280;34643;47.964;7.982;2023-10-09T00:23:05;97437.69;;;19.48;54.31
48390;BME280;34643;47.964;7.982;2023-10-09T00:28:12;97436.75;;;19.49;54.03
48390;BME280;34643;47.964;7.982;2023-10-09T00:33:13;97441.13;;;19.49;54.31
48390;BME280;34643;47.964;7.982;2023-10-09T00:38:14;97435.78;;;19.50;54.26
48390;BME280;34643;47.964;7.982;2023-10-09T00:43:20;97435.88;;;19.49;54.41
48390;BME280;34643;47.964;7.982;2023-10-09T00:48:20;97431.50;;;19.49;54.27
48390;BME280;34643;47.964;7.982;2023-10-09T00:53:31;97420.19;;;19.49;54.37
48390;BME280;34643;47.964;7.982;2023-10-09T00:58:33;97411.50;;;19.48;54.35
48390;BME280;34643;47.964;7.982;2023-10-09T01:03:36;97401.03;;;19.48;54.39
48390;BME280;34643;47.964;7.982;2023-10-09T01:08:40;97413.19;;;19.49;54.52
48390;BME280;34643;47.964;7.982;2023-10-09T01:13:41;97399.97;;;19.51;54.30
48390;BME280;34643;47.964;7.982;2023-10-09T01:18:54;97395.69;;;19.50;54.27
48390;BME280;34643;47.964;7.982;2023-10-09T01:23:57;97393.06;;;19.50;54.51
48390;BME280;34643;47.964;7.982;2023-10-09T01:29:04;97389.63;;;19.49;54.46
48390;BME280;34643;47.964;7.982;2023-10-09T01:34:10;97386.16;;;19.49;54.25
48390;BME280;34643;47.964;7.982;2023-10-09T01:39:12;97380.09;;;19.48;54.30
48390;BME280;34643;47.964;7.982;2023-10-09T01:44:25;97382.69;;;19.48;54.38
48390;BME280;34643;47.964;7.982;2023-10-09T01:49:26;97378.28;;;19.49;54.36
48390;BME280;34643;47.964;7.982;2023-10-09T01:54:29;97377.47;;;19.48;54.33
48390;BME280;34643;47.964;7.982;2023-10-09T01:59:40;97368.78;;;19.48;54.43
48390;BME280;34643;47.964;7.982;2023-10-09T02:04:44;97378.44;;;19.47;54.38
48390;BME280;34643;47.964;7.982;2023-10-09T02:09:45;97375.81;;;19.47;54.47
48390;BME280;34643;47.964;7.982;2023-10-09T02:14:47;97375.81;;;19.47;54.28
48390;BME280;34643;47.964;7.982;2023-10-09T02:19:47;97375.81;;;19.47;54.36
48390;BME280;34643;47.964;7.982;2023-10-09T02:24:52;97378.44;;;19.47;54.38
48390;BME280;34643;47.964;7.982;2023-10-09T02:29:59;97369.72;;;19.47;54.50
48390;BME280;34643;47.964;7.982;2023-10-09T02:35:00;97372.34;;;19.47;54.47
48390;BME280;34643;47.964;7.982;2023-10-09T02:40:09;97363.66;;;19.46;54.42
48390;BME280;34643;47.964;7.982;2023-10-09T02:45:10;97361.03;;;19.46;54.41
48390;BME280;34643;47.964;7.982;2023-10-09T02:50:10;97364.47;;;19.47;54.48
48390;BME280;34643;47.964;7.982;2023-10-09T02:55:11;97358.41;;;19.46;54.52
48390;BME280;34643;47.964;7.982;2023-10-09T03:00:24;97353.19;;;19.46;54.55
48390;BME280;34643;47.964;7.982;2023-10-09T03:05:30;97353.19;;;19.46;54.58
48390;BME280;34643;47.964;7.982;2023-10-09T03:10:31;97353.19;;;19.46;54.37
48390;BME280;34643;47.964;7.982;2023-10-09T03:15:34;97341.88;;;19.46;54.35
48390;BME280;34643;47.964;7.982;2023-10-09T03:20:35;97346.25;;;19.45;54.42
48390;BME280;34643;47.964;7.982;2023-10-09T03:25:37;97340.19;;;19.45;54.29
48390;BME280;34643;47.964;7.982;2023-10-09T03:30:37;97334.16;;;19.44;54.34
48390;BME280;34643;47.964;7.982;2023-10-09T03:35:40;97338.41;;;19.45;54.35
48390;BME280;34643;47.964;7.982;2023-10-09T03:40:41;97336.75;;;19.44;54.27
48390;BME280;34643;47.964;7.982;2023-10-09T03:45:42;97335.78;;;19.45;54.29
48390;BME280;34643;47.964;7.982;2023-10-09T03:50:49;97333.19;;;19.45;54.24
48390;BME280;34643;47.964;7.982;2023-10-09T03:56:05;97334.16;;;19.44;54.27
48390;BME280;34643;47.964;7.982;2023-10-09T04:01:12;97338.56;;;19.44;54.11
48390;BME280;34643;47.964;7.982;2023-10-09T04:06:29;97338.56;;;19.44;54.05
48390;BME280;34643;47.964;7.982;2023-10-09T04:11:32;97340.31;;;19.43;54.10
48390;BME280;34643;47.964;7.982;2023-10-09T04:16:33;97338.56;;;19.44;54.09
48390;BME280;34643;47.964;7.982;2023-10-09T04:21:34;97330.81;;;19.42;54.36
48390;BME280;34643;47.964;7.982;2023-10-09T04:26:34;97341.38;;;19.41;53.93
48390;BME280;34643;47.964;7.982;2023-10-09T04:31:35;97334.34;;;19.41;54.20
48390;BME280;34643;47.964;7.982;2023-10-09T04:36:37;97327.34;;;19.42;54.05
48390;BME280;34643;47.964;7.982;2023-10-09T04:41:46;97329.72;;;19.45;54.03
48390;BME280;34643;47.964;7.982;2023-10-09T04:46:46;97333.22;;;18.47;47.13
48390;BME280;34643;47.964;7.982;2023-10-09T04:52:06;97340.78;;;18.00;46.06
48390;BME280;34643;47.964;7.982;2023-10-09T04:57:18;97336.25;;;17.77;46.13
48390;BME280;34643;47.964;7.982;2023-10-09T05:02:18;97341.38;;;18.30;46.62
48390;BME280;34643;47.964;7.982;2023-10-09T05:07:23;97342.72;;;18.61;47.41
48390;BME280;34643;47.964;7.982;2023-10-09T05:12:23;97347.78;;;18.75;48.48
48390;BME280;34643;47.964;7.982;2023-10-09T05:17:29;97349.06;;;18.83;49.10
48390;BME280;34643;47.964;7.982;2023-10-09T05:22:29;97352.91;;;18.90;49.49
48390;BME280;34643;47.964;7.982;2023-10-09T05:27:29;97348.38;;;18.92;50.09
48390;BME280;34643;47.964;7.982;2023-10-09T05:32:48;97349.88;;;18.96;50.21
48390;BME280;34643;47.964;7.982;2023-10-09T05:37:48;97356.84;;;18.95;50.50
48390;BME280;34643;47.964;7.982;2023-10-09T05:43:01;97358.44;;;18.98;50.69
48390;BME280;34643;47.964;7.982;2023-10-09T05:48:03;97364.50;;;18.98;50.80
48390;BME280;34643;47.964;7.982;2023-10-09T05:53:03;97367.09;;;18.98;50.67
48390;BME280;34643;47.964;7.982;2023-10-09T05:58:04;97365.31;;;18.99;50.79
48390;BME280;34643;47.964;7.982;2023-10-09T06:03:23;97366.19;;;18.99;51.04
48390;BME280;34643;47.964;7.982;2023-10-09T06:08:26;97369.63;;;19.00;51.12
48390;BME280;34643;47.964;7.982;2023-10-09T06:13:38;97375.69;;;19.00;51.03
48390;BME280;34643;47.964;7.982;2023-10-09T06:18:41;97373.91;;;19.01;51.23
48390;BME280;34643;47.964;7.982;2023-10-09T06:23:42;97373.91;;;19.01;51.16
48390;BME280;34643;47.964;7.982;2023-10-09T06:29:02;97387.00;;;19.01;51.33
48390;BME280;34643;47.964;7.982;2023-10-09T06:34:14;97389.63;;;19.01;51.24
48390;BME280;34643;47.964;7.982;2023-10-09T06:39:15;97395.69;;;19.02;51.27
48390;BME280;34643;47.964;7.982;2023-10-09T06:44:34;97412.19;;;19.02;51.31
48390;BME280;34643;47.964;7.982;2023-10-09T06:49:53;97412.19;;;19.02;51.27
48390;BME280;34643;47.964;7.982;2023-10-09T06:55:11;97430.50;;;19.02;51.41
48390;BME280;34643;47.964;7.982;2023-10-09T07:00:19;97427.06;;;19.02;51.45
48390;BME280;34643;47.964;7.982;2023-10-09T07:06:02;97438.25;;;19.04;51.41
48390;BME280;34643;47.964;7.982;2023-10-09T07:11:05;97432.19;;;19.03;51.37
48390;BME280;34643;47.964;7.982;2023-10-09T07:16:43;97436.56;;;19.03;51.34
48390;BME280;34643;47.964;7.982;2023-10-09T07:22:00;97445.28;;;19.03;51.39
48390;BME280;34643;47.964;7.982;2023-10-09T07:27:04;97447.88;;;19.03;51.56
48390;BME280;34643;47.964;7.982;2023-10-09T07:32:19;97447.88;;;19.03;51.53
48390;BME280;34643;47.964;7.982;2023-10-09T07:37:23;97437.31;;;19.05;51.48
48390;BME280;34643;47.964;7.982;2023-10-09T07:42:26;97435.53;;;19.05;51.49
48390;BME280;34643;47.964;7.982;2023-10-09T07:47:33;97444.22;;;19.06;51.42
48390;BME280;34643;47.964;7.982;2023-10-09T07:52:46;97448.63;;;19.05;51.49
48390;BME280;34643;47.964;7.982;2023-10-09T07:57:46;97435.53;;;19.05;51.48
48390;BME280;34643;47.964;7.982;2023-10-09T08:02:52;97438.97;;;19.06;51.48
48390;BME280;34643;47.964;7.982;2023-10-09T08:08:00;97444.22;;;19.06;51.53
48390;BME280;34643;47.964;7.982;2023-10-09T08:13:23;97442.44;;;19.06;51.47
48390;BME280;34643;47.964;7.982;2023-10-09T08:18:42;97437.22;;;19.06;51.54
48390;BME280;34643;47.964;7.982;2023-10-09T08:23:44;97451.13;;;19.07;51.56
48390;BME280;34643;47.964;7.982;2023-10-09T08:28:48;97449.34;;;19.07;51.64
48390;BME280;34643;47.964;7.982;2023-10-09T08:33:48;97452.78;;;19.08;51.61
48390;BME280;34643;47.964;7.982;2023-10-09T08:38:58;97450.16;;;19.08;51.59
48390;BME280;34643;47.964;7.982;2023-10-09T08:43:59;97441.50;;;19.07;51.72
48390;BME280;34643;47.964;7.982;2023-10-09T08:49:00;97444.09;;;19.07;51.70
48390;BME280;34643;47.964;7.982;2023-10-09T08:54:05;97445.78;;;19.08;51.66
48390;BME280;34643;47.964;7.982;2023-10-09T08:59:11;97436.16;;;19.09;51.79
48390;BME280;34643;47.964;7.982;2023-10-09T09:04:12;97439.69;;;19.08;51.74
48390;BME280;34643;47.964;7.982;2023-10-09T09:09:32;97433.53;;;19.09;51.70
48390;BME280;34643;47.964;7.982;2023-10-09T09:14:37;97424.75;;;19.10;51.65
48390;BME280;34643;47.964;7.982;2023-10-09T09:19:38;97439.59;;;19.09;51.63
48390;BME280;34643;47.964;7.982;2023-10-09T09:24:38;97428.19;;;19.10;51.97
48390;BME280;34643;47.964;7.982;2023-10-09T09:29:40;97423.91;;;19.09;51.67
48390;BME280;34643;47.964;7.982;2023-10-09T09:34:44;97425.59;;;19.10;51.72
48390;BME280;34643;47.964;7.982;2023-10-09T09:39:46;97424.63;;;19.11;51.75
48390;BME280;34643;47.964;7.982;2023-10-09T09:44:53;97412.41;;;19.12;51.72
48390;BME280;34643;47.964;7.982;2023-10-09T09:49:56;97418.44;;;19.12;51.74
48390;BME280;34643;47.964;7.982;2023-10-09T09:55:12;97416.56;;;19.14;51.84
48390;BME280;34643;47.964;7.982;2023-10-09T10:00:26;97420.00;;;19.15;51.84
48390;BME280;34643;47.964;7.982;2023-10-09T10:05:48;97415.63;;;19.15;51.76
48390;BME280;34643;47.964;7.982;2023-10-09T10:10:50;97418.13;;;19.17;51.76
48390;BME280;34643;47.964;7.982;2023-10-09T10:15:57;97422.41;;;19.18;51.86
48390;BME280;34643;47.964;7.982;2023-10-09T10:26:19;97431.94;;;19.19;51.83
48390;BME280;34643;47.964;7.982;2023-10-09T10:36:46;97430.16;;;19.19;51.85
48390;BME280;34643;47.964;7.982;2023-10-09T10:41:56;97437.06;;;19.21;51.86
48390;BME280;34643;47.964;7.982;2023-10-09T10:46:57;97435.28;;;19.21;51.83
48390;BME280;34643;47.964;7.982;2023-10-09T10:51:58;97445.63;;;19.23;51.83
48390;BME280;34643;47.964;7.982;2023-10-09T10:57:20;97436.00;;;19.23;51.92
48390;BME280;34643;47.964;7.982;2023-10-09T11:02:28;97432.44;;;19.24;52.02
48390;BME280;34643;47.964;7.982;2023-10-09T11:07:31;97439.34;;;19.25;51.92
48390;BME280;34643;47.964;7.982;2023-10-09T11:17:42;97426.97;;;19.27;52.17
48390;BME280;34643;47.964;7.982;2023-10-09T11:22:42;97424.25;;;19.29;52.17
48390;BME280;34643;47.964;7.982;2023-10-09T11:28:02;97420.69;;;19.30;52.20
48390;BME280;34643;47.964;7.982;2023-10-09T11:33:23;97416.28;;;19.30;52.27
48390;BME280;34643;47.964;7.982;2023-10-09T11:38:35;97406.66;;;19.31;52.42
48390;BME280;34643;47.964;7.982;2023-10-09T11:43:51;97407.50;;;19.31;52.35
48390;BME280;34643;47.964;7.982;2023-10-09T11:49:02;97395.13;;;19.33;52.59
48390;BME280;34643;47.964;7.982;2023-10-09T11:54:28;97383.59;;;19.36;52.63
48390;BME280;34643;47.964;7.982;2023-10-09T11:59:31;97374.34;;;19.43;53.10
48390;BME280;34643;47.964;7.982;2023-10-09T12:04:38;97368.28;;;19.43;52.74
48390;BME280;34643;47.964;7.982;2023-10-09T12:09:42;97363.97;;;19.42;52.83
48390;BME280;34643;47.964;7.982;2023-10-09T12:14:42;97357.91;;;19.41;52.90
48390;BME280;34643;47.964;7.982;2023-10-09T12:19:44;97360.53;;;19.41;53.02
48390;BME280;34643;47.964;7.982;2023-10-09T12:24:44;97356.03;;;19.43;52.92
48390;BME280;34643;47.964;7.982;2023-10-09T12:29:45;97345.66;;;19.42;52.95
48390;BME280;34643;47.964;7.982;2023-10-09T12:34:46;97339.38;;;19.44;52.97
48390;BME280;34643;47.964;7.982;2023-10-09T12:39:50;97332.34;;;19.45;53.02
48390;BME280;34643;47.964;7.982;2023-10-09T12:44:55;97320.22;;;19.44;53.00
48390;BME280;34643;47.964;7.982;2023-10-09T12:49:57;97325.31;;;19.45;52.94
48390;BME280;34643;47.964;7.982;2023-10-09T12:54:58;97320.94;;;19.46;53.08
48390;BME280;34643;47.964;7.982;2023-10-09T12:59:58;97321.78;;;19.46;52.98
48390;BME280;34643;47.964;7.982;2023-10-09T13:04:58;97317.34;;;19.47;53.06
48390;BME280;34643;47.964;7.982;2023-10-09T13:10:00;97313.81;;;19.48;53.08
48390;BME280;34643;47.964;7.982;2023-10-09T13:15:10;97317.25;;;19.48;52.97
48390;BME280;34643;47.964;7.982;2023-10-09T13:20:10;97302.50;;;19.47;53.14
48390;BME280;34643;47.964;7.982;2023-10-09T13:25:14;97305.84;;;19.49;53.11
48390;BME280;34643;47.964;7.982;2023-10-09T13:30:24;97301.53;;;19.48;53.13
48390;BME280;34643;47.964;7.982;2023-10-09T13:35:25;97290.13;;;19.49;52.99
48390;BME280;34643;47.964;7.982;2023-10-09T13:40:37;97283.94;;;19.50;53.14
48390;BME280;34643;47.964;7.982;2023-10-09T13:45:38;97277.75;;;19.51;53.14
48390;BME280;34643;47.964;7.982;2023-10-09T13:50:39;97272.53;;;19.51;53.19
48390;BME280;34643;47.964;7.982;2023-10-09T13:55:42;97268.25;;;19.62;53.67
48390;BME280;34643;47.964;7.982;2023-10-09T14:00:47;97259.44;;;19.63;53.26
48390;BME280;34643;47.964;7.982;2023-10-09T14:05:49;97266.59;;;19.61;53.33
48390;BME280;34643;47.964;7.982;2023-10-09T14:10:57;97255.41;;;19.59;53.26
48390;BME280;34643;47.964;7.982;2023-10-09T14:15:57;97247.53;;;19.59;53.49
48390;BME280;34643;47.964;7.982;2023-10-09T14:21:02;97250.97;;;19.59;53.37
48390;BME280;34643;47.964;7.982;2023-10-09T14:26:16;97252.78;;;19.59;53.42
48390;BME280;34643;47.964;7.982;2023-10-09T14:31:18;97250.03;;;19.60;53.41
48390;BME280;34643;47.964;7.982;2023-10-09T14:36:26;97243.97;;;19.60;53.37
48390;BME280;34643;47.964;7.982;2023-10-09T14:41:33;97252.78;;;19.59;53.47
48390;BME280;34643;47.964;7.982;2023-10-09T14:46:34;97250.88;;;19.61;53.39
48390;BME280;34643;47.964;7.982;2023-10-09T14:51:35;97250.88;;;19.61;53.49
48390;BME280;34643;47.964;7.982;2023-10-09T14:56:36;97236.84;;;19.62;53.57
48390;BME280;34643;47.964;7.982;2023-10-09T15:01:37;97236.59;;;19.65;53.68
48390;BME280;34643;47.964;7.982;2023-10-09T15:06:38;97238.25;;;19.66;53.85
48390;BME280;34643;47.964;7.982;2023-10-09T15:11:38;97240.88;;;19.66;53.92
48390;BME280;34643;47.964;7.982;2023-10-09T15:16:39;97239.94;;;19.67;54.18
48390;BME280;34643;47.964;7.982;2023-10-09T15:21:39;97242.41;;;19.68;54.39
48390;BME280;34643;47.964;7.982;2023-10-09T15:26:46;97249.44;;;19.68;54.44
48390;BME280;34643;47.964;7.982;2023-10-09T15:32:02;97255.28;;;19.71;54.71
48390;BME280;34643;47.964;7.982;2023-10-09T15:37:14;97260.53;;;19.71;54.85
48390;BME280;34643;47.964;7.982;2023-10-09T15:42:14;97260.41;;;19.73;55.28
48390;BME280;34643;47.964;7.982;2023-10-09T15:47:16;97259.50;;;19.74;55.46
48390;BME280;34643;47.964;7.982;2023-10-09T15:52:16;97252.47;;;19.74;55.43
48390;BME280;34643;47.964;7.982;2023-10-09T15:57:18;97255.91;;;19.75;55.43
48390;BME280;34643;47.964;7.982;2023-10-09T16:02:19;97255.09;;;19.74;55.28
48390;BME280;34643;47.964;7.982;2023-10-09T16:07:19;97257.72;;;19.74;55.28
48390;BME280;34643;47.964;7.982;2023-10-09T16:12:20;97259.41;;;19.75;55.10
48390;BME280;34643;47.964;7.982;2023-10-09T16:17:20;97265.56;;;19.74;55.11
48390;BME280;34643;47.964;7.982;2023-10-09T16:22:20;97268.19;;;19.74;54.91
48390;BME280;34643;47.964;7.982;2023-10-09T16:27:23;97276.97;;;19.73;54.84
48390;BME280;34643;47.964;7.982;2023-10-09T16:32:24;97276.13;;;19.73;54.78
48390;BME280;34643;47.964;7.982;2023-10-09T16:37:25;97281.47;;;19.71;54.59
48390;BME280;34643;47.964;7.982;2023-10-09T16:42:25;97287.56;;;19.72;54.53
48390;BME280;34643;47.964;7.982;2023-10-09T16:47:25;97284.09;;;19.71;54.44
48390;BME280;34643;47.964;7.982;2023-10-09T16:52:25;97284.94;;;19.72;54.26
48390;BME280;34643;47.964;7.982;2023-10-09T16:57:26;97276.25;;;19.71;54.35
48390;BME280;34643;47.964;7.982;2023-10-09T17:02:26;97273.50;;;19.73;54.17
48390;BME280;34643;47.964;7.982;2023-10-09T17:07:27;97256.88;;;19.74;54.48
48390;BME280;34643;47.964;7.982;2023-10-09T17:12:28;97254.75;;;19.79;54.78
48390;BME280;34643;47.964;7.982;2023-10-09T17:17:29;97252.72;;;19.83;55.12
48390;BME280;34643;47.964;7.982;2023-10-09T17:22:31;97250.94;;;19.83;55.12
48390;BME280;34643;47.964;7.982;2023-10-09T17:27:33;97264.16;;;19.82;54.99
48390;BME280;34643;47.964;7.982;2023-10-09T17:32:34;97261.63;;;19.80;54.77
48390;BME280;34643;47.964;7.982;2023-10-09T17:37:36;97256.41;;;19.80;54.71
48390;BME280;34643;47.964;7.982;2023-10-09T17:42:36;97263.06;;;19.84;54.80
48390;BME280;34643;47.964;7.982;2023-10-09T17:47:41;97275.44;;;19.82;54.86
48390;BME280;34643;47.964;7.982;2023-10-09T17:52:41;97283.91;;;19.86;55.01
48390;BME280;34643;47.964;7.982;2023-10-09T17:57:42;97288.47;;;19.95;55.47
48390;BME280;34643;47.964;7.982;2023-10-09T18:02:43;97284.53;;;20.01;55.40
48390;BME280;34643;47.964;7.982;2023-10-09T18:07:43;97282.63;;;20.03;55.37
48390;BME280;34643;47.964;7.982;2023-10-09T18:12:44;97272.03;;;20.04;55.52
48390;BME280;34643;47.964;7.982;2023-10-09T18:17:44;97273.56;;;20.07;55.72
48390;BME280;34643;47.964;7.982;2023-10-09T18:22:45;97281.31;;;20.08;55.88
48390;BME280;34643;47.964;7.982;2023-10-09T18:27:46;97280.38;;;20.09;55.80
48390;BME280;34643;47.964;7.982;2023-10-09T18:32:46;97283.00;;;20.09;56.14
48390;BME280;34643;47.964;7.982;2023-10-09T18:37:46;97289.41;;;20.05;55.82
48390;BME280;34643;47.964;7.982;2023-10-09T18:42:47;97293.94;;;20.03;55.88
48390;BME280;34643;47.964;7.982;2023-10-09T18:47:48;97291.44;;;20.02;55.78
48390;BME280;34643;47.964;7.982;2023-10-09T18:52:48;97295.00;;;20.01;55.83
48390;BME280;34643;47.964;7.982;2023-10-09T18:57:49;97299.16;;;20.03;55.84
48390;BME280;34643;47.964;7.982;2023-10-09T19:02:49;97284.53;;;20.01;56.13
48390;BME280;34643;47.964;7.982;2023-10-09T19:07:53;97291.44;;;20.02;56.12
48390;BME280;34643;47.964;7.982;2023-10-09T19:12:56;97297.53;;;20.02;55.94
48390;BME280;34643;47.964;7.982;2023-10-09T19:17:56;97305.50;;;20.01;55.75
48390;BME280;34643;47.964;7.982;2023-10-09T19:22:58;97318.59;;;20.01;55.90
48390;BME280;34643;47.964;7.982;2023-10-09T19:27:59;97309.88;;;20.00;55.87
48390;BME280;34643;47.964;7.982;2023-10-09T19:32:59;97320.34;;;20.00;55.98
48390;BME280;34643;47.964;7.982;2023-10-09T19:37:59;97322.38;;;19.97;55.65
48390;BME280;34643;47.964;7.982;2023-10-09T19:43:00;97333.59;;;19.99;55.80
48390;BME280;34643;47.964;7.982;2023-10-09T19:48:00;97326.69;;;19.98;55.45
48390;BME280;34643;47.964;7.982;2023-10-09T19:53:02;97337.16;;;19.98;55.83
48390;BME280;34643;47.964;7.982;2023-10-09T19:58:02;97343.22;;;19.98;55.75
48390;BME280;34643;47.964;7.982;2023-10-09T20:03:04;97318.94;;;19.96;55.12
48390;BME280;34643;47.964;7.982;2023-10-09T20:08:04;97310.25;;;19.96;54.53
48390;BME280;34643;47.964;7.982;2023-10-09T20:13:05;97307.63;;;19.96;54.62
48390;BME280;34643;47.964;7.982;2023-10-09T20:18:05;97305.13;;;19.94;54.76
48390;BME280;34643;47.964;7.982;2023-10-09T20:23:07;97311.41;;;19.91;54.61
48390;BME280;34643;47.964;7.982;2023-10-09T20:28:07;97314.03;;;19.91;54.56
48390;BME280;34643;47.964;7.982;2023-10-09T20:33:10;97316.66;;;19.91;54.60
48390;BME280;34643;47.964;7.982;2023-10-09T20:38:10;97323.56;;;19.92;54.77
48390;BME280;34643;47.964;7.982;2023-10-09T20:43:14;97328.81;;;19.92;54.98
48390;BME280;34643;47.964;7.982;2023-10-09T20:48:15;97333.22;;;19.92;55.15
48390;BME280;34643;47.964;7.982;2023-10-09T20:53:16;97347.16;;;19.92;55.49
48390;BME280;34643;47.964;7.982;2023-10-09T20:58:17;97343.72;;;19.92;55.81
48390;BME280;34643;47.964;7.982;2023-10-09T21:03:17;97346.31;;;19.92;55.85
48390;BME280;34643;47.964;7.982;2023-10-09T21:08:18;97350.72;;;19.91;56.05
48390;BME280;34643;47.964;7.982;2023-10-09T21:13:18;97350.72;;;19.91;56.15
48390;BME280;34643;47.964;7.982;2023-10-09T21:18:19;97349.06;;;19.90;56.21
48390;BME280;34643;47.964;7.982;2023-10-09T21:23:19;97346.44;;;19.90;56.11
48390;BME280;34643;47.964;7.982;2023-10-09T21:28:20;97346.44;;;19.90;56.26
48390;BME280;34643;47.964;7.982;2023-10-09T21:33:20;97346.44;;;19.90;56.15
48390;BME280;34643;47.964;7.982;2023-10-09T21:38:21;97355.25;;;19.89;56.36
48390;BME280;34643;47.964;7.982;2023-10-09T21:43:21;97350.00;;;19.89;55.96
48390;BME280;34643;47.964;7.982;2023-10-09T21:48:21;97354.41;;;19.89;56.10
48390;BME280;34643;47.964;7.982;2023-10-09T21:53:22;97360.72;;;19.86;56.13
48390;BME280;34643;47.964;7.982;2023-10-09T21:58:22;97355.50;;;19.86;56.12
48390;BME280;34643;47.964;7.982;2023-10-09T22:03:22;97350.25;;;19.86;56.54
48390;BME280;34643;47.964;7.982;2023-10-09T22:08:27;97350.25;;;19.86;56.21
48390;BME280;34643;47.964;7.982;2023-10-09T22:13:27;97341.53;;;19.86;56.60
48390;BME280;34643;47.964;7.982;2023-10-09T22:18:27;97332.84;;;19.85;56.39
48390;BME280;34643;47.964;7.982;2023-10-09T22:23:29;97332.84;;;19.85;56.28
48390;BME280;34643;47.964;7.982;2023-10-09T22:28:35;97339.88;;;19.85;56.29
48390;BME280;34643;47.964;7.982;2023-10-09T22:33:40;97340.72;;;19.85;56.14
48390;BME280;34643;47.964;7.982;2023-10-09T22:38:51;97350.47;;;19.83;55.99
48390;BME280;34643;47.964;7.982;2023-10-09T22:43:55;97348.69;;;19.84;56.29
48390;BME280;34643;47.964;7.982;2023-10-09T22:48:56;97347.84;;;19.83;56.53
48390;BME280;34643;47.964;7.982;2023-10-09T22:54:04;97357.38;;;19.84;56.14
48390;BME280;34643;47.964;7.982;2023-10-09T22:59:04;97355.72;;;19.83;56.29
48390;BME280;34643;47.964;7.982;2023-10-09T23:04:23;97354.03;;;19.82;55.92
48390;BME280;34643;47.964;7.982;2023-10-09T23:09:39;97355.81;;;19.82;56.31
48390;BME280;34643;47.964;7.982;2023-10-09T23:14:49;97359.28;;;19.82;56.20
48390;BME280;34643;47.964;7.982;2023-10-09T23:19:50;97352.38;;;19.81;56.20
48390;BME280;34643;47.964;7.982;2023-10-09T23:24:57;97344.53;;;19.81;56.21
48390;BME280;34643;47.964;7.982;2023-10-09T23:35:30;97355.94;;;19.80;55.82
48390;BME280;34643;47.964;7.982;2023-10-09T23:40:44;97356.91;;;19.79;55.96
48390;BME280;34643;47.964;7.982;2023-10-09T23:45:45;97351.66;;;19.79;55.56
48390;BME280;34643;47.964;7.982;2023-10-09T23:50:45;97338.56;;;19.79;55.32
48390;BME280;34643;47.964;7.982;2023-10-09T23:55:47;97336.88;;;19.78;55.28
